sensor_id;sensor_type;location;lat;lon;timestamp;pressure;altitude;pressure_sealevel;temperature;humidity
75219;BME280;63801;49.414;19.474;2023-04-05T00:01:18;94032.03;;;-3.68;68.83
75219;BME280;63801;49.414;19.474;2023-04-05T00:03:19;94029.91;;;-3.66;69.06
75219;BME280;63801;49.414;19.474;2023-04-05T00:05:19;94025.22;;;-3.64;68.89
75219;BME280;63801;49.414;19.474;2023-04-05T00:07:28;94019.66;;;-3.63;68.87
75219;BME280;63801;49.414;19.474;2023-04-05T00:09:28;94019.66;;;-3.63;68.98
75219;BME280;63801;49.414;19.474;2023-04-05T00:11:31;94018.91;;;-3.63;68.87
75219;BME280;63801;49.414;19.474;2023-04-05T00:13:32;94019.38;;;-3.66;68.97
75219;BME280;63801;49.414;19.474;2023-04-05T00:15:32;94032.59;;;-3.61;69.05
75219;BME280;63801;49.414;19.474;2023-04-05T00:17:32;94018.34;;;-3.65;69.18
75219;BME280;63801;49.414;19.474;2023-04-05T00:19:33;94022.56;;;-3.64;68.96
75219;BME280;63801;49.414;19.474;2023-04-05T00:21:35;94014.13;;;-3.66;68.81
75219;BME280;63801;49.414;19.474;2023-04-05T00:23:38;94017.25;;;-3.69;68.84
75219;BME280;63801;49.414;19.474;2023-04-05T00:25:38;94012.75;;;-3.74;68.95
75219;BME280;63801;49.414;19.474;2023-04-05T00:27:42;94015.16;;;-3.72;69.04
75219;BME280;63801;49.414;19.474;2023-04-05T00:29:42;94015.16;;;-3.72;69.05
75219;BME280;63801;49.414;19.474;2023-04-05T00:31:42;94013.56;;;-3.73;69.38
75219;BME280;63801;49.414;19.474;2023-04-05T00:33:43;94007.25;;;-3.72;68.83
75219;BME280;63801;49.414;19.474;2023-04-05T00:35:44;94010.66;;;-3.72;69.04
75219;BME280;63801;49.414;19.474;2023-04-05T00:37:44;94014.06;;;-3.71;69.04
75219;BME280;63801;49.414;19.474;2023-04-05T00:39:45;94011.44;;;-3.71;69.11
75219;BME280;63801;49.414;19.474;2023-04-05T00:41:45;94006.69;;;-3.74;68.92
75219;BME280;63801;49.414;19.474;2023-04-05T00:43:46;94013.28;;;-3.72;69.06
75219;BME280;63801;49.414;19.474;2023-04-05T00:45:46;94014.06;;;-3.76;69.01
75219;BME280;63801;49.414;19.474;2023-04-05T00:47:46;94017.22;;;-3.74;69.15
75219;BME280;63801;49.414;19.474;2023-04-05T00:49:47;94019.34;;;-3.76;68.97
75219;BME280;63801;49.414;19.474;2023-04-05T00:51:47;94017.19;;;-3.79;68.85
75219;BME280;63801;49.414;19.474;2023-04-05T00:53:48;94014.56;;;-3.79;69.14
75219;BME280;63801;49.414;19.474;2023-04-05T00:55:52;94009.00;;;-3.83;68.88
75219;BME280;63801;49.414;19.474;2023-04-05T00:57:53;94011.88;;;-3.84;69.09
75219;BME280;63801;49.414;19.474;2023-04-05T00:59:57;94001.06;;;-3.88;69.07
75219;BME280;63801;49.414;19.474;2023-04-05T01:04:15;94005.72;;;-4.00;68.89
75219;BME280;63801;49.414;19.474;2023-04-05T01:08:46;93994.81;;;-4.14;68.90
75219;BME280;63801;49.414;19.474;2023-04-05T01:10:52;93996.91;;;-4.16;68.97
75219;BME280;63801;49.414;19.474;2023-04-05T01:12:54;93989.75;;;-4.20;69.11
75219;BME280;63801;49.414;19.474;2023-04-05T01:14:54;93994.25;;;-4.21;68.98
75219;BME280;63801;49.414;19.474;2023-04-05T01:16:55;93993.94;;;-4.24;69.20
75219;BME280;63801;49.414;19.474;2023-04-05T01:18:58;93994.44;;;-4.27;69.32
75219;BME280;63801;49.414;19.474;2023-04-05T01:23:42;93990.19;;;-4.33;69.17
75219;BME280;63801;49.414;19.474;2023-04-05T01:26:08;93995.75;;;-4.30;69.31
75219;BME280;63801;49.414;19.474;2023-04-05T01:30:36;93992.81;;;-4.33;68.94
75219;BME280;63801;49.414;19.474;2023-04-05T01:35:09;93995.41;;;-4.38;68.88
75219;BME280;63801;49.414;19.474;2023-04-05T01:37:17;93980.06;;;-4.46;68.83
75219;BME280;63801;49.414;19.474;2023-04-05T01:39:19;93995.66;;;-4.40;68.92
75219;BME280;63801;49.414;19.474;2023-04-05T01:41:20;93993.03;;;-4.40;68.83
75219;BME280;63801;49.414;19.474;2023-04-05T01:43:21;93995.09;;;-4.42;68.59
75219;BME280;63801;49.414;19.474;2023-04-05T01:45:22;93978.22;;;-4.46;68.68
75219;BME280;63801;49.414;19.474;2023-04-05T01:47:22;93987.97;;;-4.46;68.65
75219;BME280;63801;49.414;19.474;2023-04-05T01:49:23;93994.00;;;-4.46;68.53
75219;BME280;63801;49.414;19.474;2023-04-05T01:51:23;93989.50;;;-4.50;68.59
75219;BME280;63801;49.414;19.474;2023-04-05T01:53:24;93995.81;;;-4.51;68.47
75219;BME280;63801;49.414;19.474;2023-04-05T01:55:25;93988.97;;;-4.53;68.33
75219;BME280;63801;49.414;19.474;2023-04-05T01:57:25;93997.09;;;-4.54;68.43
75219;BME280;63801;49.414;19.474;2023-04-05T01:59:25;93989.97;;;-4.59;68.39
75219;BME280;63801;49.414;19.474;2023-04-05T02:01:26;93991.25;;;-4.61;68.72
75219;BME280;63801;49.414;19.474;2023-04-05T02:03:26;93982.00;;;-4.64;68.51
75219;BME280;63801;49.414;19.474;2023-04-05T02:05:26;93979.34;;;-4.69;68.50
75219;BME280;63801;49.414;19.474;2023-04-05T02:07:27;93979.03;;;-4.72;68.53
75219;BME280;63801;49.414;19.474;2023-04-05T02:09:27;93989.56;;;-4.72;68.55
75219;BME280;63801;49.414;19.474;2023-04-05T02:11:27;93983.44;;;-4.78;68.46
75219;BME280;63801;49.414;19.474;2023-04-05T02:13:28;93986.59;;;-4.81;68.67
75219;BME280;63801;49.414;19.474;2023-04-05T02:15:28;93989.97;;;-4.85;68.56
75219;BME280;63801;49.414;19.474;2023-04-05T02:17:29;93992.06;;;-4.87;68.46
75219;BME280;63801;49.414;19.474;2023-04-05T02:19:33;93987.25;;;-4.90;68.45
75219;BME280;63801;49.414;19.474;2023-04-05T02:21:39;93980.63;;;-4.98;68.54
75219;BME280;63801;49.414;19.474;2023-04-05T02:23:40;93981.41;;;-4.97;68.34
75219;BME280;63801;49.414;19.474;2023-04-05T02:25:40;93981.59;;;-5.04;68.39
75219;BME280;63801;49.414;19.474;2023-04-05T02:27:40;93988.94;;;-5.06;68.50
75219;BME280;63801;49.414;19.474;2023-04-05T02:29:41;93976.56;;;-5.11;68.46
75219;BME280;63801;49.414;19.474;2023-04-05T02:31:41;93979.41;;;-5.12;68.42
75219;BME280;63801;49.414;19.474;2023-04-05T02:33:41;93979.34;;;-5.17;68.72
75219;BME280;63801;49.414;19.474;2023-04-05T02:35:42;93977.72;;;-5.23;68.61
75219;BME280;63801;49.414;19.474;2023-04-05T02:37:42;93976.88;;;-5.29;68.82
75219;BME280;63801;49.414;19.474;2023-04-05T02:39:42;93973.88;;;-5.37;69.17
75219;BME280;63801;49.414;19.474;2023-04-05T02:41:43;93975.16;;;-5.40;68.71
75219;BME280;63801;49.414;19.474;2023-04-05T02:43:43;93971.59;;;-5.51;68.81
75219;BME280;63801;49.414;19.474;2023-04-05T02:45:43;93978.13;;;-5.53;68.55
75219;BME280;63801;49.414;19.474;2023-04-05T02:47:45;93972.28;;;-5.60;69.07
75219;BME280;63801;49.414;19.474;2023-04-05T02:49:45;93974.81;;;-5.65;68.80
75219;BME280;63801;49.414;19.474;2023-04-05T02:51:45;93975.03;;;-5.72;68.91
75219;BME280;63801;49.414;19.474;2023-04-05T02:53:46;93974.94;;;-5.77;68.89
75219;BME280;63801;49.414;19.474;2023-04-05T02:55:51;93980.91;;;-5.81;69.12
75219;BME280;63801;49.414;19.474;2023-04-05T02:57:52;93968.25;;;-5.89;69.09
75219;BME280;63801;49.414;19.474;2023-04-05T02:59:52;93968.25;;;-5.89;68.87
75219;BME280;63801;49.414;19.474;2023-04-05T03:01:53;93970.78;;;-5.95;69.02
75219;BME280;63801;49.414;19.474;2023-04-05T03:03:53;93980.72;;;-5.97;68.94
75219;BME280;63801;49.414;19.474;2023-04-05T03:05:58;93973.34;;;-6.00;69.02
75219;BME280;63801;49.414;19.474;2023-04-05T03:08:09;93978.28;;;-6.03;69.34
75219;BME280;63801;49.414;19.474;2023-04-05T03:10:21;93976.59;;;-6.09;69.25
75219;BME280;63801;49.414;19.474;2023-04-05T03:12:21;93981.06;;;-6.10;69.48
75219;BME280;63801;49.414;19.474;2023-04-05T03:14:21;93979.72;;;-6.12;69.60
75219;BME280;63801;49.414;19.474;2023-04-05T03:16:22;93985.47;;;-6.15;69.50
75219;BME280;63801;49.414;19.474;2023-04-05T03:18:22;93984.66;;;-6.16;69.53
75219;BME280;63801;49.414;19.474;2023-04-05T03:20:24;93980.66;;;-6.18;69.42
75219;BME280;63801;49.414;19.474;2023-04-05T03:22:25;93968.44;;;-6.29;69.55
75219;BME280;63801;49.414;19.474;2023-04-05T03:24:26;93979.34;;;-6.21;69.98
75219;BME280;63801;49.414;19.474;2023-04-05T03:26:26;93979.25;;;-6.26;69.78
75219;BME280;63801;49.414;19.474;2023-04-05T03:28:28;93987.66;;;-6.24;69.88
75219;BME280;63801;49.414;19.474;2023-04-05T03:30:28;93986.00;;;-6.30;69.74
75219;BME280;63801;49.414;19.474;2023-04-05T03:32:29;93989.16;;;-6.28;69.75
75219;BME280;63801;49.414;19.474;2023-04-05T03:34:29;93992.84;;;-6.29;69.72
75219;BME280;63801;49.414;19.474;2023-04-05T03:36:30;93985.44;;;-6.32;70.04
75219;BME280;63801;49.414;19.474;2023-04-05T03:38:43;93989.66;;;-6.31;69.96
75219;BME280;63801;49.414;19.474;2023-04-05T03:40:44;93983.88;;;-6.33;69.68
75219;BME280;63801;49.414;19.474;2023-04-05T03:42:44;93995.63;;;-6.36;69.87
75219;BME280;63801;49.414;19.474;2023-04-05T03:44:45;93998.00;;;-6.34;69.82
75219;BME280;63801;49.414;19.474;2023-04-05T03:46:47;93994.28;;;-6.38;70.17
75219;BME280;63801;49.414;19.474;2023-04-05T03:48:48;93985.59;;;-6.39;69.95
75219;BME280;63801;49.414;19.474;2023-04-05T03:50:49;93985.03;;;-6.41;69.90
75219;BME280;63801;49.414;19.474;2023-04-05T03:52:50;93989.75;;;-6.43;70.00
75219;BME280;63801;49.414;19.474;2023-04-05T03:54:50;93992.09;;;-6.41;70.02
75219;BME280;63801;49.414;19.474;2023-04-05T03:56:51;93990.53;;;-6.42;69.80
75219;BME280;63801;49.414;19.474;2023-04-05T03:58:52;93996.56;;;-6.42;69.99
75219;BME280;63801;49.414;19.474;2023-04-05T04:00:52;93995.00;;;-6.43;69.87
75219;BME280;63801;49.414;19.474;2023-04-05T04:02:52;93983.84;;;-6.50;70.30
75219;BME280;63801;49.414;19.474;2023-04-05T04:04:53;93979.88;;;-6.52;69.96
75219;BME280;63801;49.414;19.474;2023-04-05T04:06:53;93991.31;;;-6.42;70.09
75219;BME280;63801;49.414;19.474;2023-04-05T04:08:53;93996.56;;;-6.42;70.02
75219;BME280;63801;49.414;19.474;2023-04-05T04:10:54;93990.53;;;-6.42;70.00
75219;BME280;63801;49.414;19.474;2023-04-05T04:12:54;93995.53;;;-6.41;70.03
75219;BME280;63801;49.414;19.474;2023-04-05T04:14:54;93988.94;;;-6.43;70.19
75219;BME280;63801;49.414;19.474;2023-04-05T04:16:55;93996.91;;;-6.38;70.11
75219;BME280;63801;49.414;19.474;2023-04-05T04:18:55;94001.66;;;-6.35;70.08
75219;BME280;63801;49.414;19.474;2023-04-05T04:20:56;94004.84;;;-6.33;70.11
75219;BME280;63801;49.414;19.474;2023-04-05T04:22:57;94001.97;;;-6.31;70.27
75219;BME280;63801;49.414;19.474;2023-04-05T04:24:58;94005.47;;;-6.26;70.19
75219;BME280;63801;49.414;19.474;2023-04-05T04:27:03;94011.84;;;-6.22;70.13
75219;BME280;63801;49.414;19.474;2023-04-05T04:29:05;94007.47;;;-6.16;70.38
75219;BME280;63801;49.414;19.474;2023-04-05T04:31:10;94008.34;;;-6.11;70.22
75219;BME280;63801;49.414;19.474;2023-04-05T04:33:12;94007.38;;;-6.05;70.46
75219;BME280;63801;49.414;19.474;2023-04-05T04:35:14;94006.44;;;-5.99;70.46
75219;BME280;63801;49.414;19.474;2023-04-05T04:37:17;94004.97;;;-5.89;70.56
75219;BME280;63801;49.414;19.474;2023-04-05T04:39:18;94004.31;;;-5.80;70.52
75219;BME280;63801;49.414;19.474;2023-04-05T04:41:18;94000.47;;;-5.72;70.48
75219;BME280;63801;49.414;19.474;2023-04-05T04:43:19;94002.19;;;-5.61;70.55
75219;BME280;63801;49.414;19.474;2023-04-05T04:45:25;94003.91;;;-5.50;70.72
75219;BME280;63801;49.414;19.474;2023-04-05T04:47:26;93998.81;;;-5.40;70.59
75219;BME280;63801;49.414;19.474;2023-04-05T04:49:28;94004.47;;;-5.26;70.75
75219;BME280;63801;49.414;19.474;2023-04-05T04:51:29;94008.16;;;-5.06;70.71
75219;BME280;63801;49.414;19.474;2023-04-05T04:53:29;94000.69;;;-4.92;70.91
75219;BME280;63801;49.414;19.474;2023-04-05T04:55:30;94006.13;;;-4.72;70.44
75219;BME280;63801;49.414;19.474;2023-04-05T04:57:32;93991.75;;;-4.64;70.55
75219;BME280;63801;49.414;19.474;2023-04-05T04:59:32;94003.34;;;-4.33;70.68
75219;BME280;63801;49.414;19.474;2023-04-05T05:01:33;94008.31;;;-4.05;70.27
75219;BME280;63801;49.414;19.474;2023-04-05T05:03:34;94006.59;;;-3.47;69.99
75219;BME280;63801;49.414;19.474;2023-04-05T05:05:47;94008.00;;;-2.62;68.57
75219;BME280;63801;49.414;19.474;2023-04-05T05:07:48;94004.66;;;-1.82;68.06
75219;BME280;63801;49.414;19.474;2023-04-05T05:09:48;94001.69;;;-1.35;66.94
75219;BME280;63801;49.414;19.474;2023-04-05T05:11:51;94001.78;;;-0.81;66.64
75219;BME280;63801;49.414;19.474;2023-04-05T05:13:51;94007.06;;;-0.27;65.93
75219;BME280;63801;49.414;19.474;2023-04-05T05:15:52;94007.25;;;0.21;65.46
75219;BME280;63801;49.414;19.474;2023-04-05T05:17:52;94002.75;;;0.79;64.93
75219;BME280;63801;49.414;19.474;2023-04-05T05:19:55;94000.91;;;1.46;64.89
75219;BME280;63801;49.414;19.474;2023-04-05T05:21:56;94000.06;;;2.06;63.96
75219;BME280;63801;49.414;19.474;2023-04-05T05:23:56;93995.94;;;2.65;63.47
75219;BME280;63801;49.414;19.474;2023-04-05T05:25:57;94000.72;;;3.23;62.81
75219;BME280;63801;49.414;19.474;2023-04-05T05:27:58;93995.22;;;3.82;61.57
75219;BME280;63801;49.414;19.474;2023-04-05T05:29:59;93998.94;;;4.31;60.79
75219;BME280;63801;49.414;19.474;2023-04-05T05:32:00;93998.13;;;4.75;60.74
75219;BME280;63801;49.414;19.474;2023-04-05T05:34:00;93985.47;;;5.20;59.59
75219;BME280;63801;49.414;19.474;2023-04-05T05:36:01;93985.31;;;5.73;58.21
75219;BME280;63801;49.414;19.474;2023-04-05T05:38:02;93986.81;;;6.22;57.46
75219;BME280;63801;49.414;19.474;2023-04-05T05:40:03;93987.56;;;6.65;56.81
75219;BME280;63801;49.414;19.474;2023-04-05T05:42:05;93967.00;;;7.04;55.45
75219;BME280;63801;49.414;19.474;2023-04-05T05:44:05;93973.00;;;7.47;55.58
75219;BME280;63801;49.414;19.474;2023-04-05T05:46:06;93976.72;;;7.84;55.33
75219;BME280;63801;49.414;19.474;2023-04-05T05:48:06;93956.66;;;8.11;54.62
75219;BME280;63801;49.414;19.474;2023-04-05T05:50:07;93973.22;;;8.54;53.35
75219;BME280;63801;49.414;19.474;2023-04-05T05:52:09;93974.66;;;8.73;52.02
75219;BME280;63801;49.414;19.474;2023-04-05T05:54:09;93982.25;;;9.03;50.92
75219;BME280;63801;49.414;19.474;2023-04-05T05:56:10;93969.41;;;9.21;50.39
75219;BME280;63801;49.414;19.474;2023-04-05T05:58:10;93964.06;;;9.45;49.42
75219;BME280;63801;49.414;19.474;2023-04-05T06:00:11;93969.44;;;9.70;47.54
75219;BME280;63801;49.414;19.474;2023-04-05T06:02:11;93966.63;;;9.90;47.12
75219;BME280;63801;49.414;19.474;2023-04-05T06:04:12;93953.97;;;9.91;46.42
75219;BME280;63801;49.414;19.474;2023-04-05T06:06:13;93962.66;;;10.00;45.91
75219;BME280;63801;49.414;19.474;2023-04-05T06:08:13;93963.00;;;10.11;45.70
75219;BME280;63801;49.414;19.474;2023-04-05T06:10:14;93958.06;;;10.25;45.71
75219;BME280;63801;49.414;19.474;2023-04-05T06:12:14;93956.22;;;10.53;44.81
75219;BME280;63801;49.414;19.474;2023-04-05T06:14:15;93962.09;;;10.71;43.88
75219;BME280;63801;49.414;19.474;2023-04-05T06:16:15;93947.81;;;10.70;44.01
75219;BME280;63801;49.414;19.474;2023-04-05T06:18:16;93942.31;;;10.67;42.89
75219;BME280;63801;49.414;19.474;2023-04-05T06:20:16;93961.03;;;10.75;41.70
75219;BME280;63801;49.414;19.474;2023-04-05T06:22:17;93958.81;;;10.93;43.37
75219;BME280;63801;49.414;19.474;2023-04-05T06:24:17;93958.78;;;11.05;41.62
75219;BME280;63801;49.414;19.474;2023-04-05T06:26:19;93950.13;;;11.00;42.76
75219;BME280;63801;49.414;19.474;2023-04-05T06:28:20;93958.16;;;10.96;41.58
75219;BME280;63801;49.414;19.474;2023-04-05T06:30:21;93961.81;;;10.76;42.01
75219;BME280;63801;49.414;19.474;2023-04-05T06:32:21;93959.50;;;10.90;41.44
75219;BME280;63801;49.414;19.474;2023-04-05T06:34:21;93963.41;;;11.20;40.28
75219;BME280;63801;49.414;19.474;2023-04-05T06:36:22;93957.31;;;11.39;40.67
75219;BME280;63801;49.414;19.474;2023-04-05T06:38:22;93963.25;;;11.60;40.46
75219;BME280;63801;49.414;19.474;2023-04-05T06:40:22;93957.63;;;11.81;39.91
75219;BME280;63801;49.414;19.474;2023-04-05T06:42:23;93963.50;;;12.02;39.29
75219;BME280;63801;49.414;19.474;2023-04-05T06:44:23;93961.25;;;11.89;38.84
75219;BME280;63801;49.414;19.474;2023-04-05T06:46:23;93963.78;;;11.82;39.26
75219;BME280;63801;49.414;19.474;2023-04-05T06:48:24;93965.44;;;11.86;38.54
75219;BME280;63801;49.414;19.474;2023-04-05T06:50:24;93966.13;;;11.99;39.04
75219;BME280;63801;49.414;19.474;2023-04-05T06:52:24;93959.75;;;12.07;39.01
75219;BME280;63801;49.414;19.474;2023-04-05T06:54:25;93960.66;;;12.30;38.34
75219;BME280;63801;49.414;19.474;2023-04-05T06:56:26;93960.59;;;12.46;37.46
75219;BME280;63801;49.414;19.474;2023-04-05T06:58:27;93961.59;;;12.57;37.28
75219;BME280;63801;49.414;19.474;2023-04-05T07:00:27;93966.16;;;12.72;37.15
75219;BME280;63801;49.414;19.474;2023-04-05T07:02:27;93958.31;;;12.67;36.88
75219;BME280;63801;49.414;19.474;2023-04-05T07:04:28;93962.59;;;12.68;36.05
75219;BME280;63801;49.414;19.474;2023-04-05T07:06:32;93957.31;;;12.75;36.34
75219;BME280;63801;49.414;19.474;2023-04-05T07:08:34;93957.59;;;12.89;36.44
75219;BME280;63801;49.414;19.474;2023-04-05T07:10:39;93965.88;;;13.16;36.12
75219;BME280;63801;49.414;19.474;2023-04-05T07:12:40;93953.03;;;13.32;35.64
75219;BME280;63801;49.414;19.474;2023-04-05T07:14:40;93963.66;;;13.21;35.64
75219;BME280;63801;49.414;19.474;2023-04-05T07:16:41;93960.66;;;12.88;35.42
75219;BME280;63801;49.414;19.474;2023-04-05T07:18:41;93955.19;;;12.46;35.68
75219;BME280;63801;49.414;19.474;2023-04-05T07:20:41;93969.25;;;12.17;35.97
75219;BME280;63801;49.414;19.474;2023-04-05T07:22:42;93958.41;;;12.17;36.08
75219;BME280;63801;49.414;19.474;2023-04-05T07:24:44;93960.09;;;12.40;36.07
75219;BME280;63801;49.414;19.474;2023-04-05T07:26:44;93966.66;;;12.58;35.23
75219;BME280;63801;49.414;19.474;2023-04-05T07:28:44;93956.88;;;12.35;35.43
75219;BME280;63801;49.414;19.474;2023-04-05T07:30:45;93956.16;;;12.57;35.21
75219;BME280;63801;49.414;19.474;2023-04-05T07:32:45;93955.56;;;12.83;34.71
75219;BME280;63801;49.414;19.474;2023-04-05T07:34:46;93952.75;;;12.79;34.67
75219;BME280;63801;49.414;19.474;2023-04-05T07:36:47;93964.59;;;12.90;34.69
75219;BME280;63801;49.414;19.474;2023-04-05T07:38:49;93963.91;;;12.74;34.08
75219;BME280;63801;49.414;19.474;2023-04-05T07:40:49;93957.38;;;12.40;34.53
75219;BME280;63801;49.414;19.474;2023-04-05T07:42:50;93949.97;;;12.37;35.00
75219;BME280;63801;49.414;19.474;2023-04-05T07:44:50;93954.03;;;12.66;34.62
75219;BME280;63801;49.414;19.474;2023-04-05T07:46:51;93957.31;;;12.75;34.88
75219;BME280;63801;49.414;19.474;2023-04-05T07:48:52;93964.66;;;12.94;34.39
75219;BME280;63801;49.414;19.474;2023-04-05T07:50:52;93959.31;;;12.97;34.58
75219;BME280;63801;49.414;19.474;2023-04-05T07:52:53;93954.34;;;12.99;34.15
75219;BME280;63801;49.414;19.474;2023-04-05T07:54:54;93957.44;;;13.01;33.46
75219;BME280;63801;49.414;19.474;2023-04-05T07:56:54;93957.16;;;13.06;34.12
75219;BME280;63801;49.414;19.474;2023-04-05T07:58:57;93952.69;;;12.76;33.47
75219;BME280;63801;49.414;19.474;2023-04-05T08:01:02;93953.84;;;12.55;34.05
75219;BME280;63801;49.414;19.474;2023-04-05T08:03:03;93947.59;;;12.51;33.57
75219;BME280;63801;49.414;19.474;2023-04-05T08:05:06;93950.75;;;12.57;33.39
75219;BME280;63801;49.414;19.474;2023-04-05T08:07:06;93941.75;;;12.69;34.05
75219;BME280;63801;49.414;19.474;2023-04-05T08:09:07;93949.06;;;12.87;34.20
75219;BME280;63801;49.414;19.474;2023-04-05T08:11:08;93941.25;;;12.82;32.66
75219;BME280;63801;49.414;19.474;2023-04-05T08:13:08;93945.66;;;12.71;33.44
75219;BME280;63801;49.414;19.474;2023-04-05T08:15:09;93942.97;;;12.52;33.21
75219;BME280;63801;49.414;19.474;2023-04-05T08:17:09;93949.06;;;12.30;33.03
75219;BME280;63801;49.414;19.474;2023-04-05T08:19:10;93944.78;;;11.94;33.32
75219;BME280;63801;49.414;19.474;2023-04-05T08:21:10;93947.81;;;11.30;33.08
75219;BME280;63801;49.414;19.474;2023-04-05T08:23:10;93946.25;;;10.69;34.03
75219;BME280;63801;49.414;19.474;2023-04-05T08:25:11;93945.16;;;10.58;33.92
75219;BME280;63801;49.414;19.474;2023-04-05T08:27:11;93932.31;;;10.40;34.37
75219;BME280;63801;49.414;19.474;2023-04-05T08:29:11;93933.31;;;9.71;34.27
75219;BME280;63801;49.414;19.474;2023-04-05T08:31:12;93945.78;;;8.82;35.23
75219;BME280;63801;49.414;19.474;2023-04-05T08:33:12;93948.09;;;8.38;35.93
75219;BME280;63801;49.414;19.474;2023-04-05T08:35:13;93939.19;;;8.05;36.03
75219;BME280;63801;49.414;19.474;2023-04-05T08:37:14;93937.53;;;7.62;36.30
75219;BME280;63801;49.414;19.474;2023-04-05T08:39:14;93934.78;;;7.50;37.53
75219;BME280;63801;49.414;19.474;2023-04-05T08:41:22;93942.34;;;7.48;37.75
75219;BME280;63801;49.414;19.474;2023-04-05T08:43:39;93941.28;;;7.41;37.28
75219;BME280;63801;49.414;19.474;2023-04-05T08:45:46;93932.63;;;7.06;37.80
75219;BME280;63801;49.414;19.474;2023-04-05T08:47:51;93940.09;;;7.30;38.47
75219;BME280;63801;49.414;19.474;2023-04-05T08:49:53;93934.72;;;7.59;38.39
75219;BME280;63801;49.414;19.474;2023-04-05T08:51:54;93936.13;;;7.65;37.51
75219;BME280;63801;49.414;19.474;2023-04-05T08:53:54;93936.38;;;7.51;37.63
75219;BME280;63801;49.414;19.474;2023-04-05T08:55:55;93941.06;;;7.25;38.25
75219;BME280;63801;49.414;19.474;2023-04-05T08:57:57;93941.16;;;7.08;38.49
75219;BME280;63801;49.414;19.474;2023-04-05T08:59:59;93933.94;;;6.91;37.87
75219;BME280;63801;49.414;19.474;2023-04-05T09:02:01;93932.63;;;6.59;38.32
75219;BME280;63801;49.414;19.474;2023-04-05T09:04:08;93933.13;;;6.18;38.14
75219;BME280;63801;49.414;19.474;2023-04-05T09:06:11;93939.19;;;5.67;38.47
75219;BME280;63801;49.414;19.474;2023-04-05T09:08:12;93948.72;;;5.25;38.84
75219;BME280;63801;49.414;19.474;2023-04-05T09:10:13;93942.00;;;4.97;39.45
75219;BME280;63801;49.414;19.474;2023-04-05T09:12:13;93944.84;;;4.70;39.73
75219;BME280;63801;49.414;19.474;2023-04-05T09:14:15;93940.31;;;4.48;40.11
75219;BME280;63801;49.414;19.474;2023-04-05T09:16:16;93935.84;;;4.35;40.49
75219;BME280;63801;49.414;19.474;2023-04-05T09:18:17;93942.66;;;4.19;40.93
75219;BME280;63801;49.414;19.474;2023-04-05T09:20:17;93939.38;;;3.99;41.13
75219;BME280;63801;49.414;19.474;2023-04-05T09:22:18;93943.09;;;3.76;41.47
75219;BME280;63801;49.414;19.474;2023-04-05T09:24:37;93939.41;;;3.50;41.72
75219;BME280;63801;49.414;19.474;2023-04-05T09:26:40;93942.13;;;3.23;42.27
75219;BME280;63801;49.414;19.474;2023-04-05T09:28:41;93943.50;;;3.06;42.37
75219;BME280;63801;49.414;19.474;2023-04-05T09:30:45;93947.66;;;2.99;42.67
75219;BME280;63801;49.414;19.474;2023-04-05T09:32:46;93937.09;;;2.94;42.95
75219;BME280;63801;49.414;19.474;2023-04-05T09:34:47;93940.72;;;2.84;43.47
75219;BME280;63801;49.414;19.474;2023-04-05T09:36:47;93944.28;;;2.80;43.51
75219;BME280;63801;49.414;19.474;2023-04-05T09:38:47;93942.50;;;2.75;43.95
75219;BME280;63801;49.414;19.474;2023-04-05T09:40:48;93942.31;;;2.71;44.11
75219;BME280;63801;49.414;19.474;2023-04-05T09:42:50;93941.41;;;2.76;43.92
75219;BME280;63801;49.414;19.474;2023-04-05T09:46:53;93930.97;;;3.21;44.47
75219;BME280;63801;49.414;19.474;2023-04-05T09:48:53;93933.78;;;3.51;44.10
75219;BME280;63801;49.414;19.474;2023-04-05T09:51:04;93935.09;;;3.76;43.12
75219;BME280;63801;49.414;19.474;2023-04-05T09:53:10;93935.72;;;3.95;43.21
75219;BME280;63801;49.414;19.474;2023-04-05T09:55:25;93930.78;;;4.25;42.99
75219;BME280;63801;49.414;19.474;2023-04-05T09:57:27;93934.13;;;4.61;42.63
75219;BME280;63801;49.414;19.474;2023-04-05T09:59:29;93934.41;;;4.82;41.93
75219;BME280;63801;49.414;19.474;2023-04-05T10:01:31;93926.78;;;5.06;42.58
75219;BME280;63801;49.414;19.474;2023-04-05T10:03:45;93926.94;;;5.10;41.61
75219;BME280;63801;49.414;19.474;2023-04-05T10:05:46;93918.66;;;5.20;41.94
75219;BME280;63801;49.414;19.474;2023-04-05T10:07:47;93918.81;;;5.23;41.72
75219;BME280;63801;49.414;19.474;2023-04-05T10:09:48;93917.31;;;5.39;42.23
75219;BME280;63801;49.414;19.474;2023-04-05T10:11:48;93913.69;;;5.35;41.31
75219;BME280;63801;49.414;19.474;2023-04-05T10:13:49;93913.50;;;5.32;41.74
75219;BME280;63801;49.414;19.474;2023-04-05T10:15:50;93909.72;;;5.33;42.12
75219;BME280;63801;49.414;19.474;2023-04-05T10:18:06;93921.50;;;5.32;41.91
75219;BME280;63801;49.414;19.474;2023-04-05T10:20:20;93895.84;;;5.22;41.54
75219;BME280;63801;49.414;19.474;2023-04-05T10:22:31;93914.94;;;5.38;41.40
75219;BME280;63801;49.414;19.474;2023-04-05T10:24:37;93912.78;;;5.49;42.09
75219;BME280;63801;49.414;19.474;2023-04-05T10:26:46;93915.28;;;5.62;41.44
75219;BME280;63801;49.414;19.474;2023-04-05T10:28:51;93908.53;;;5.65;41.80
75219;BME280;63801;49.414;19.474;2023-04-05T10:33:27;93903.28;;;5.34;41.25
75219;BME280;63801;49.414;19.474;2023-04-05T10:38:12;93909.78;;;4.32;41.79
75219;BME280;63801;49.414;19.474;2023-04-05T10:40:17;93917.19;;;4.13;42.39
75219;BME280;63801;49.414;19.474;2023-04-05T10:42:25;93908.94;;;4.00;42.77
75219;BME280;63801;49.414;19.474;2023-04-05T10:44:29;93915.00;;;3.92;43.06
75219;BME280;63801;49.414;19.474;2023-04-05T10:46:31;93921.31;;;3.96;43.11
75219;BME280;63801;49.414;19.474;2023-04-05T10:50:57;93911.25;;;4.16;43.53
75219;BME280;63801;49.414;19.474;2023-04-05T10:52:59;93919.13;;;4.21;43.19
75219;BME280;63801;49.414;19.474;2023-04-05T10:55:01;93918.47;;;4.15;43.61
75219;BME280;63801;49.414;19.474;2023-04-05T10:57:05;93912.81;;;4.17;43.81
75219;BME280;63801;49.414;19.474;2023-04-05T10:59:07;93915.53;;;4.25;43.82
75219;BME280;63801;49.414;19.474;2023-04-05T11:01:07;93918.88;;;4.31;43.52